createdAt,value
2023-02-27T00:02:56.364Z,3584
2023-02-27T00:12:56.325Z,3584
2023-02-27T00:22:56.315Z,3587
2023-02-27T00:32:56.309Z,3587
2023-02-27T00:42:56.315Z,3587
2023-02-27T00:52:56.338Z,3579
2023-02-27T01:02:56.304Z,3574
2023-02-27T01:12:56.320Z,3576
2023-02-27T01:22:56.297Z,3579
2023-02-27T01:32:56.288Z,3579
2023-02-27T01:42:56.301Z,3581
2023-02-27T01:52:56.701Z,3574
2023-02-27T02:02:56.283Z,3579
2023-02-27T02:12:56.305Z,3579
2023-02-27T02:22:56.286Z,3581
2023-02-27T02:32:56.261Z,3584
2023-02-27T02:42:56.271Z,3576
2023-02-27T02:52:59.054Z,3579
2023-02-27T03:02:56.239Z,3581
2023-02-27T03:12:58.216Z,3584
2023-02-27T03:22:56.238Z,3584
2023-02-27T03:32:56.221Z,3584
2023-02-27T03:42:56.237Z,3584
2023-02-27T03:52:56.229Z,3584
2023-02-27T04:02:56.232Z,3584
2023-02-27T04:12:56.228Z,3576
2023-02-27T04:22:56.218Z,3579
2023-02-27T04:32:56.285Z,3581
2023-02-27T04:42:56.204Z,3584
2023-02-27T04:52:56.627Z,3576
2023-02-27T05:02:58.240Z,3561
2023-02-27T05:22:56.204Z,3561
2023-02-27T05:32:56.609Z,3563
2023-02-27T05:42:56.179Z,3569
2023-02-27T05:52:56.192Z,3574
2023-02-27T06:02:56.195Z,3569
2023-02-27T06:12:56.175Z,3574
2023-02-27T06:22:56.195Z,3576
2023-02-27T06:32:56.170Z,3579
2023-02-27T06:42:56.166Z,3581
2023-02-27T06:52:56.141Z,3581
2023-02-27T07:02:56.162Z,3581
2023-02-27T07:12:56.153Z,3581
2023-02-27T07:22:56.151Z,3584
2023-02-27T07:32:56.130Z,3584
2023-02-27T07:42:56.143Z,3584
2023-02-27T07:52:56.114Z,3587
2023-02-27T08:02:56.227Z,3587
2023-02-27T08:12:56.119Z,3589
2023-02-27T08:22:56.149Z,3589
2023-02-27T08:32:56.111Z,3589
2023-02-27T08:42:56.523Z,3579
2023-02-27T08:52:56.121Z,3584
2023-02-27T09:02:56.107Z,3584
2023-02-27T09:12:56.103Z,3579
2023-02-27T09:22:56.090Z,3579
2023-02-27T09:32:56.054Z,3581
2023-02-27T09:42:56.114Z,3584
2023-02-27T09:52:56.043Z,3587
2023-02-27T10:02:56.149Z,3587
2023-02-27T10:12:56.042Z,3589
2023-02-27T10:22:56.027Z,3589
2023-02-27T10:32:56.071Z,3589
2023-02-27T10:42:56.056Z,3589
2023-02-27T10:52:56.013Z,3592
2023-02-27T11:02:56.437Z,3587
2023-02-27T11:12:56.034Z,3587
2023-02-27T11:22:56.424Z,3584
2023-02-27T11:42:55.961Z,3584
2023-02-27T11:52:55.975Z,3584
2023-02-27T12:02:56.474Z,3584
2023-02-27T12:12:55.972Z,3584
2023-02-27T12:22:55.955Z,3587
2023-02-27T12:32:56.348Z,3584
2023-02-27T12:42:55.939Z,3587
2023-02-27T12:52:55.917Z,3589
2023-02-27T13:02:55.934Z,3592
2023-02-27T13:12:55.903Z,3592
2023-02-27T13:22:55.907Z,3594
2023-02-27T13:32:56.029Z,3594
2023-02-27T13:42:55.886Z,3594
2023-02-27T13:52:55.840Z,3594
2023-02-27T14:03:00.221Z,3594
2023-02-27T14:12:55.850Z,3594
2023-02-27T14:22:56.251Z,3587
2023-02-27T14:32:55.825Z,3589
2023-02-27T14:42:55.802Z,3592
2023-02-27T14:52:56.229Z,3587
2023-02-27T15:02:55.794Z,3589
2023-02-27T15:12:55.787Z,3592
2023-02-27T15:22:55.790Z,3594
2023-02-27T15:32:55.988Z,3597
2023-02-27T15:42:55.779Z,3594
2023-02-27T15:52:55.733Z,3597
2023-02-27T16:02:56.261Z,3589
2023-02-27T16:12:55.738Z,3592
2023-02-27T16:22:55.716Z,3592
2023-02-27T16:32:55.697Z,3594
2023-02-27T16:42:55.686Z,3594
2023-02-27T16:52:55.674Z,3594
2023-02-27T17:02:55.662Z,3594
2023-02-27T17:12:55.661Z,3594
2023-02-27T17:22:55.655Z,3594
2023-02-27T17:32:57.304Z,3589
2023-02-27T17:42:55.656Z,3589
2023-02-27T17:52:55.638Z,3592
2023-02-27T18:02:55.653Z,3592
2023-02-27T18:12:55.636Z,3594
2023-02-27T18:22:55.587Z,3594
2023-02-27T18:32:55.577Z,3594
2023-02-27T18:42:56.022Z,3587
2023-02-27T18:52:55.574Z,3589
2023-02-27T19:02:56.169Z,3584
2023-02-27T19:12:55.574Z,3587
2023-02-27T19:22:55.544Z,3589
2023-02-27T19:32:55.566Z,3589
2023-02-27T19:42:55.556Z,3589
2023-02-27T19:52:55.517Z,3589
2023-02-27T20:02:55.511Z,3592
2023-02-27T20:12:55.516Z,3584
2023-02-27T20:22:55.496Z,3587
2023-02-27T20:32:55.503Z,3589
2023-02-27T20:42:55.489Z,3589
2023-02-27T20:52:55.493Z,3589
2023-02-27T21:02:55.457Z,3589
2023-02-27T21:12:55.454Z,3589
2023-02-27T21:22:55.935Z,3584
2023-02-27T21:32:55.478Z,3584
2023-02-27T21:42:55.447Z,3587
2023-02-27T21:52:55.425Z,3587
2023-02-27T22:02:55.482Z,3581
2023-02-27T22:12:55.417Z,3584
2023-02-27T22:22:55.431Z,3584
2023-02-27T22:32:55.419Z,3587
2023-02-27T22:42:55.415Z,3579
2023-02-27T22:52:55.398Z,3581
2023-02-27T23:02:55.407Z,3584
2023-02-27T23:12:55.403Z,3584
2023-02-27T23:22:55.394Z,3587
2023-02-27T23:32:55.384Z,3589
2023-02-27T23:42:55.386Z,3589
2023-02-27T23:52:55.392Z,3589
